sensor_id;sensor_type;location;lat;lon;timestamp;P1;durP1;ratioP1;P2;durP2;ratioP2
33862;SDS011;20158;51.436;-2.742;2023-11-21T00:02:21;1.15;;;0.50;;
33862;SDS011;20158;51.436;-2.742;2023-11-21T00:04:48;1.90;;;0.88;;
33862;SDS011;20158;51.436;-2.742;2023-11-21T00:07:14;1.45;;;0.70;;
33862;SDS011;20158;51.436;-2.742;2023-11-21T00:09:44;3.28;;;0.90;;
33862;SDS011;20158;51.436;-2.742;2023-11-21T00:12:10;2.28;;;1.00;;
33862;SDS011;20158;51.436;-2.742;2023-11-21T00:14:37;2.30;;;0.60;;
33862;SDS011;20158;51.436;-2.742;2023-11-21T00:17:04;2.67;;;0.90;;
33862;SDS011;20158;51.436;-2.742;2023-11-21T00:19:31;0.55;;;0.40;;
33862;SDS011;20158;51.436;-2.742;2023-11-21T00:21:58;1.63;;;0.68;;
33862;SDS011;20158;51.436;-2.742;2023-11-21T00:24:25;1.65;;;0.60;;
33862;SDS011;20158;51.436;-2.742;2023-11-21T00:26:52;1.83;;;0.55;;
33862;SDS011;20158;51.436;-2.742;2023-11-21T00:29:22;3.00;;;0.85;;
33862;SDS011;20158;51.436;-2.742;2023-11-21T00:31:48;1.35;;;0.70;;
33862;SDS011;20158;51.436;-2.742;2023-11-21T00:34:14;1.13;;;0.63;;
33862;SDS011;20158;51.436;-2.742;2023-11-21T00:36:41;1.67;;;0.50;;
33862;SDS011;20158;51.436;-2.742;2023-11-21T00:39:08;1.65;;;0.82;;
33862;SDS011;20158;51.436;-2.742;2023-11-21T00:41:34;2.53;;;0.85;;
33862;SDS011;20158;51.436;-2.742;2023-11-21T00:44:02;1.15;;;0.60;;
33862;SDS011;20158;51.436;-2.742;2023-11-21T00:46:28;2.38;;;0.70;;
33862;SDS011;20158;51.436;-2.742;2023-11-21T00:48:55;1.45;;;0.50;;
33862;SDS011;20158;51.436;-2.742;2023-11-21T00:51:22;2.67;;;0.60;;
33862;SDS011;20158;51.436;-2.742;2023-11-21T00:53:49;1.80;;;0.50;;
33862;SDS011;20158;51.436;-2.742;2023-11-21T00:56:15;3.03;;;0.88;;
33862;SDS011;20158;51.436;-2.742;2023-11-21T00:58:41;2.38;;;0.50;;
33862;SDS011;20158;51.436;-2.742;2023-11-21T01:01:15;4.50;;;0.90;;
33862;SDS011;20158;51.436;-2.742;2023-11-21T01:03:42;2.72;;;0.70;;
33862;SDS011;20158;51.436;-2.742;2023-11-21T01:06:08;1.92;;;0.60;;
33862;SDS011;20158;51.436;-2.742;2023-11-21T01:08:34;2.17;;;0.80;;
33862;SDS011;20158;51.436;-2.742;2023-11-21T01:11:02;0.75;;;0.40;;
33862;SDS011;20158;51.436;-2.742;2023-11-21T01:13:28;2.85;;;0.70;;
33862;SDS011;20158;51.436;-2.742;2023-11-21T01:15:55;2.08;;;0.77;;
33862;SDS011;20158;51.436;-2.742;2023-11-21T01:18:22;3.00;;;0.82;;
33862;SDS011;20158;51.436;-2.742;2023-11-21T01:20:51;3.63;;;0.63;;
33862;SDS011;20158;51.436;-2.742;2023-11-21T01:23:19;1.85;;;0.43;;
33862;SDS011;20158;51.436;-2.742;2023-11-21T01:25:45;4.97;;;0.65;;
33862;SDS011;20158;51.436;-2.742;2023-11-21T01:28:12;2.70;;;0.85;;
33862;SDS011;20158;51.436;-2.742;2023-11-21T01:30:38;1.67;;;0.73;;
33862;SDS011;20158;51.436;-2.742;2023-11-21T01:33:04;4.03;;;1.13;;
33862;SDS011;20158;51.436;-2.742;2023-11-21T01:35:30;4.20;;;2.13;;
33862;SDS011;20158;51.436;-2.742;2023-11-21T01:37:56;1.55;;;0.70;;
33862;SDS011;20158;51.436;-2.742;2023-11-21T01:40:23;2.88;;;0.80;;
33862;SDS011;20158;51.436;-2.742;2023-11-21T01:42:50;3.00;;;1.10;;
33862;SDS011;20158;51.436;-2.742;2023-11-21T01:45:15;3.05;;;1.00;;
33862;SDS011;20158;51.436;-2.742;2023-11-21T01:47:42;3.00;;;0.95;;
33862;SDS011;20158;51.436;-2.742;2023-11-21T01:50:10;1.92;;;0.70;;
33862;SDS011;20158;51.436;-2.742;2023-11-21T01:52:42;1.95;;;0.70;;
33862;SDS011;20158;51.436;-2.742;2023-11-21T01:55:09;2.42;;;0.60;;
33862;SDS011;20158;51.436;-2.742;2023-11-21T01:57:37;1.67;;;0.70;;
33862;SDS011;20158;51.436;-2.742;2023-11-21T02:00:04;3.17;;;1.40;;
33862;SDS011;20158;51.436;-2.742;2023-11-21T02:02:43;0.82;;;0.55;;
33862;SDS011;20158;51.436;-2.742;2023-11-21T02:05:10;2.70;;;1.00;;
33862;SDS011;20158;51.436;-2.742;2023-11-21T02:07:40;3.08;;;0.60;;
33862;SDS011;20158;51.436;-2.742;2023-11-21T02:10:08;1.40;;;0.70;;
33862;SDS011;20158;51.436;-2.742;2023-11-21T02:12:36;1.00;;;0.52;;
33862;SDS011;20158;51.436;-2.742;2023-11-21T02:15:05;2.50;;;0.70;;
33862;SDS011;20158;51.436;-2.742;2023-11-21T02:17:35;1.98;;;0.68;;
33862;SDS011;20158;51.436;-2.742;2023-11-21T02:20:02;2.65;;;0.90;;
33862;SDS011;20158;51.436;-2.742;2023-11-21T02:22:29;2.15;;;0.60;;
33862;SDS011;20158;51.436;-2.742;2023-11-21T02:24:58;1.65;;;0.73;;
33862;SDS011;20158;51.436;-2.742;2023-11-21T02:27:24;0.82;;;0.43;;
33862;SDS011;20158;51.436;-2.742;2023-11-21T02:29:50;1.52;;;0.73;;
33862;SDS011;20158;51.436;-2.742;2023-11-21T02:32:16;2.40;;;0.50;;
33862;SDS011;20158;51.436;-2.742;2023-11-21T02:34:48;0.90;;;0.50;;
33862;SDS011;20158;51.436;-2.742;2023-11-21T02:37:15;0.98;;;0.57;;
33862;SDS011;20158;51.436;-2.742;2023-11-21T02:39:41;1.23;;;0.50;;
33862;SDS011;20158;51.436;-2.742;2023-11-21T02:42:08;1.15;;;0.50;;
33862;SDS011;20158;51.436;-2.742;2023-11-21T02:44:34;2.85;;;0.50;;
33862;SDS011;20158;51.436;-2.742;2023-11-21T02:47:01;1.70;;;0.50;;
33862;SDS011;20158;51.436;-2.742;2023-11-21T02:49:28;1.13;;;0.50;;
33862;SDS011;20158;51.436;-2.742;2023-11-21T02:51:54;1.55;;;0.50;;
33862;SDS011;20158;51.436;-2.742;2023-11-21T02:54:21;0.43;;;0.40;;
33862;SDS011;20158;51.436;-2.742;2023-11-21T02:56:51;0.85;;;0.63;;
33862;SDS011;20158;51.436;-2.742;2023-11-21T02:59:17;1.30;;;0.80;;
33862;SDS011;20158;51.436;-2.742;2023-11-21T03:01:45;1.10;;;0.40;;
33862;SDS011;20158;51.436;-2.742;2023-11-21T03:04:11;1.13;;;0.50;;
33862;SDS011;20158;51.436;-2.742;2023-11-21T03:06:44;0.88;;;0.50;;
33862;SDS011;20158;51.436;-2.742;2023-11-21T03:09:11;1.50;;;0.55;;
33862;SDS011;20158;51.436;-2.742;2023-11-21T03:11:39;0.75;;;0.50;;
33862;SDS011;20158;51.436;-2.742;2023-11-21T03:14:05;1.77;;;0.65;;
33862;SDS011;20158;51.436;-2.742;2023-11-21T03:16:32;0.40;;;0.38;;
33862;SDS011;20158;51.436;-2.742;2023-11-21T03:18:59;1.15;;;0.60;;
33862;SDS011;20158;51.436;-2.742;2023-11-21T03:21:27;3.05;;;0.80;;
33862;SDS011;20158;51.436;-2.742;2023-11-21T03:23:54;1.05;;;0.65;;
33862;SDS011;20158;51.436;-2.742;2023-11-21T03:26:20;1.15;;;0.45;;
33862;SDS011;20158;51.436;-2.742;2023-11-21T03:28:47;0.88;;;0.65;;
33862;SDS011;20158;51.436;-2.742;2023-11-21T03:31:13;0.82;;;0.65;;
33862;SDS011;20158;51.436;-2.742;2023-11-21T03:33:42;1.90;;;1.63;;
33862;SDS011;20158;51.436;-2.742;2023-11-21T03:36:08;0.98;;;0.88;;
33862;SDS011;20158;51.436;-2.742;2023-11-21T03:38:36;0.88;;;0.80;;
33862;SDS011;20158;51.436;-2.742;2023-11-21T03:41:02;2.17;;;1.08;;
33862;SDS011;20158;51.436;-2.742;2023-11-21T03:43:28;1.48;;;1.10;;
33862;SDS011;20158;51.436;-2.742;2023-11-21T03:45:55;1.40;;;1.30;;
33862;SDS011;20158;51.436;-2.742;2023-11-21T03:48:21;1.27;;;1.17;;
33862;SDS011;20158;51.436;-2.742;2023-11-21T03:50:48;1.30;;;1.20;;
33862;SDS011;20158;51.436;-2.742;2023-11-21T03:53:15;2.28;;;1.55;;
33862;SDS011;20158;51.436;-2.742;2023-11-21T03:55:42;1.50;;;1.40;;
33862;SDS011;20158;51.436;-2.742;2023-11-21T03:58:11;1.38;;;1.27;;
33862;SDS011;20158;51.436;-2.742;2023-11-21T04:00:37;3.78;;;1.45;;
33862;SDS011;20158;51.436;-2.742;2023-11-21T04:03:04;1.70;;;1.58;;
33862;SDS011;20158;51.436;-2.742;2023-11-21T04:05:30;1.70;;;1.60;;
33862;SDS011;20158;51.436;-2.742;2023-11-21T04:07:56;1.73;;;1.55;;
33862;SDS011;20158;51.436;-2.742;2023-11-21T04:10:23;1.73;;;1.50;;
33862;SDS011;20158;51.436;-2.742;2023-11-21T04:12:50;1.60;;;1.50;;
33862;SDS011;20158;51.436;-2.742;2023-11-21T04:15:19;1.67;;;1.50;;
33862;SDS011;20158;51.436;-2.742;2023-11-21T04:17:46;1.67;;;1.58;;
33862;SDS011;20158;51.436;-2.742;2023-11-21T04:20:12;1.98;;;1.60;;
33862;SDS011;20158;51.436;-2.742;2023-11-21T04:22:39;2.15;;;1.65;;
33862;SDS011;20158;51.436;-2.742;2023-11-21T04:25:10;1.40;;;1.30;;
33862;SDS011;20158;51.436;-2.742;2023-11-21T04:27:39;1.60;;;1.48;;
33862;SDS011;20158;51.436;-2.742;2023-11-21T04:30:05;1.67;;;1.50;;
33862;SDS011;20158;51.436;-2.742;2023-11-21T04:32:33;1.40;;;1.30;;
33862;SDS011;20158;51.436;-2.742;2023-11-21T04:34:59;1.40;;;1.30;;
33862;SDS011;20158;51.436;-2.742;2023-11-21T04:37:25;1.13;;;1.10;;
33862;SDS011;20158;51.436;-2.742;2023-11-21T04:39:52;1.30;;;1.20;;
33862;SDS011;20158;51.436;-2.742;2023-11-21T04:42:18;1.10;;;1.10;;
33862;SDS011;20158;51.436;-2.742;2023-11-21T04:44:44;1.20;;;1.10;;
33862;SDS011;20158;51.436;-2.742;2023-11-21T04:47:11;1.05;;;1.05;;
33862;SDS011;20158;51.436;-2.742;2023-11-21T04:49:39;1.05;;;1.00;;
33862;SDS011;20158;51.436;-2.742;2023-11-21T04:52:08;0.90;;;0.90;;
33862;SDS011;20158;51.436;-2.742;2023-11-21T04:54:35;1.02;;;0.93;;
33862;SDS011;20158;51.436;-2.742;2023-11-21T04:57:02;1.05;;;0.90;;
33862;SDS011;20158;51.436;-2.742;2023-11-21T04:59:30;0.90;;;0.90;;
33862;SDS011;20158;51.436;-2.742;2023-11-21T05:01:57;0.73;;;0.73;;
33862;SDS011;20158;51.436;-2.742;2023-11-21T05:04:24;0.70;;;0.70;;
33862;SDS011;20158;51.436;-2.742;2023-11-21T05:06:53;0.68;;;0.68;;
33862;SDS011;20158;51.436;-2.742;2023-11-21T05:09:20;1.00;;;0.90;;
33862;SDS011;20158;51.436;-2.742;2023-11-21T05:11:48;1.85;;;0.70;;
33862;SDS011;20158;51.436;-2.742;2023-11-21T05:14:16;0.88;;;0.77;;
33862;SDS011;20158;51.436;-2.742;2023-11-21T05:16:44;0.82;;;0.82;;
33862;SDS011;20158;51.436;-2.742;2023-11-21T05:19:11;0.82;;;0.60;;
33862;SDS011;20158;51.436;-2.742;2023-11-21T05:21:41;0.50;;;0.50;;
33862;SDS011;20158;51.436;-2.742;2023-11-21T05:24:08;1.27;;;0.60;;
33862;SDS011;20158;51.436;-2.742;2023-11-21T05:26:39;0.60;;;0.60;;
33862;SDS011;20158;51.436;-2.742;2023-11-21T05:29:05;0.80;;;0.75;;
33862;SDS011;20158;51.436;-2.742;2023-11-21T05:31:32;0.65;;;0.65;;
33862;SDS011;20158;51.436;-2.742;2023-11-21T05:33:59;0.77;;;0.60;;
33862;SDS011;20158;51.436;-2.742;2023-11-21T05:36:26;1.38;;;0.85;;
33862;SDS011;20158;51.436;-2.742;2023-11-21T05:38:52;0.52;;;0.50;;
33862;SDS011;20158;51.436;-2.742;2023-11-21T05:41:19;0.75;;;0.60;;
33862;SDS011;20158;51.436;-2.742;2023-11-21T05:43:46;1.20;;;0.43;;
33862;SDS011;20158;51.436;-2.742;2023-11-21T05:46:12;0.50;;;0.50;;
33862;SDS011;20158;51.436;-2.742;2023-11-21T05:48:39;0.55;;;0.50;;
33862;SDS011;20158;51.436;-2.742;2023-11-21T05:51:06;0.50;;;0.47;;
33862;SDS011;20158;51.436;-2.742;2023-11-21T05:53:32;0.75;;;0.60;;
33862;SDS011;20158;51.436;-2.742;2023-11-21T05:55:58;0.85;;;0.52;;
33862;SDS011;20158;51.436;-2.742;2023-11-21T05:58:24;0.38;;;0.38;;
33862;SDS011;20158;51.436;-2.742;2023-11-21T06:00:50;0.43;;;0.30;;
33862;SDS011;20158;51.436;-2.742;2023-11-21T06:03:17;0.35;;;0.35;;
33862;SDS011;20158;51.436;-2.742;2023-11-21T06:05:43;0.85;;;0.50;;
33862;SDS011;20158;51.436;-2.742;2023-11-21T06:08:09;0.88;;;0.60;;
33862;SDS011;20158;51.436;-2.742;2023-11-21T06:10:36;0.70;;;0.38;;
33862;SDS011;20158;51.436;-2.742;2023-11-21T06:13:01;0.63;;;0.43;;
33862;SDS011;20158;51.436;-2.742;2023-11-21T06:15:29;0.80;;;0.50;;
33862;SDS011;20158;51.436;-2.742;2023-11-21T06:17:55;0.95;;;0.40;;
33862;SDS011;20158;51.436;-2.742;2023-11-21T06:20:22;0.43;;;0.43;;
33862;SDS011;20158;51.436;-2.742;2023-11-21T06:22:49;0.63;;;0.40;;
33862;SDS011;20158;51.436;-2.742;2023-11-21T06:25:16;0.57;;;0.38;;
33862;SDS011;20158;51.436;-2.742;2023-11-21T06:27:44;0.88;;;0.40;;
33862;SDS011;20158;51.436;-2.742;2023-11-21T06:30:12;0.75;;;0.35;;
33862;SDS011;20158;51.436;-2.742;2023-11-21T06:32:39;0.93;;;0.30;;
33862;SDS011;20158;51.436;-2.742;2023-11-21T06:35:05;0.68;;;0.40;;
33862;SDS011;20158;51.436;-2.742;2023-11-21T06:37:32;1.13;;;0.50;;
33862;SDS011;20158;51.436;-2.742;2023-11-21T06:39:59;0.68;;;0.40;;
33862;SDS011;20158;51.436;-2.742;2023-11-21T06:42:26;15.45;;;3.67;;
33862;SDS011;20158;51.436;-2.742;2023-11-21T06:44:53;6.90;;;1.65;;
33862;SDS011;20158;51.436;-2.742;2023-11-21T06:47:22;10.93;;;2.08;;
33862;SDS011;20158;51.436;-2.742;2023-11-21T06:49:52;6.00;;;1.38;;
33862;SDS011;20158;51.436;-2.742;2023-11-21T06:52:19;4.70;;;1.05;;
33862;SDS011;20158;51.436;-2.742;2023-11-21T06:54:45;4.50;;;1.10;;
33862;SDS011;20158;51.436;-2.742;2023-11-21T06:57:12;4.22;;;1.10;;
33862;SDS011;20158;51.436;-2.742;2023-11-21T06:59:39;6.65;;;1.52;;
33862;SDS011;20158;51.436;-2.742;2023-11-21T07:02:05;2.95;;;1.25;;
33862;SDS011;20158;51.436;-2.742;2023-11-21T07:04:37;1.85;;;0.57;;
33862;SDS011;20158;51.436;-2.742;2023-11-21T07:07:04;5.53;;;0.90;;
33862;SDS011;20158;51.436;-2.742;2023-11-21T07:09:32;9.23;;;1.38;;
33862;SDS011;20158;51.436;-2.742;2023-11-21T07:11:58;2.95;;;0.77;;
33862;SDS011;20158;51.436;-2.742;2023-11-21T07:14:25;5.03;;;1.88;;
33862;SDS011;20158;51.436;-2.742;2023-11-21T07:16:51;1.52;;;0.70;;
33862;SDS011;20158;51.436;-2.742;2023-11-21T07:19:20;1.02;;;0.70;;
33862;SDS011;20158;51.436;-2.742;2023-11-21T07:21:47;3.47;;;1.00;;
33862;SDS011;20158;51.436;-2.742;2023-11-21T07:24:16;2.05;;;0.50;;
33862;SDS011;20158;51.436;-2.742;2023-11-21T07:26:42;1.17;;;0.52;;
33862;SDS011;20158;51.436;-2.742;2023-11-21T07:29:08;1.77;;;0.50;;
33862;SDS011;20158;51.436;-2.742;2023-11-21T07:31:35;1.20;;;0.50;;
33862;SDS011;20158;51.436;-2.742;2023-11-21T07:34:01;0.30;;;0.30;;
33862;SDS011;20158;51.436;-2.742;2023-11-21T07:36:27;2.08;;;0.40;;
33862;SDS011;20158;51.436;-2.742;2023-11-21T07:38:53;1.25;;;1.15;;
33862;SDS011;20158;51.436;-2.742;2023-11-21T07:41:19;1.05;;;0.30;;
33862;SDS011;20158;51.436;-2.742;2023-11-21T07:43:46;0.55;;;0.35;;
33862;SDS011;20158;51.436;-2.742;2023-11-21T07:46:12;1.27;;;0.40;;
33862;SDS011;20158;51.436;-2.742;2023-11-21T07:48:39;2.35;;;0.32;;
33862;SDS011;20158;51.436;-2.742;2023-11-21T07:51:07;1.00;;;0.30;;
33862;SDS011;20158;51.436;-2.742;2023-11-21T07:53:34;2.28;;;0.50;;
33862;SDS011;20158;51.436;-2.742;2023-11-21T07:56:04;0.30;;;0.30;;
33862;SDS011;20158;51.436;-2.742;2023-11-21T07:58:31;1.77;;;0.38;;
33862;SDS011;20158;51.436;-2.742;2023-11-21T08:01:01;1.40;;;0.60;;
33862;SDS011;20158;51.436;-2.742;2023-11-21T08:03:28;0.80;;;0.40;;
33862;SDS011;20158;51.436;-2.742;2023-11-21T08:05:57;0.80;;;0.38;;
33862;SDS011;20158;51.436;-2.742;2023-11-21T08:08:24;0.40;;;0.22;;
33862;SDS011;20158;51.436;-2.742;2023-11-21T08:10:50;0.50;;;0.40;;
33862;SDS011;20158;51.436;-2.742;2023-11-21T08:13:26;0.95;;;0.40;;
33862;SDS011;20158;51.436;-2.742;2023-11-21T08:15:53;0.70;;;0.52;;
33862;SDS011;20158;51.436;-2.742;2023-11-21T08:18:21;0.68;;;0.30;;
33862;SDS011;20158;51.436;-2.742;2023-11-21T08:20:47;1.55;;;0.38;;
33862;SDS011;20158;51.436;-2.742;2023-11-21T08:23:14;0.40;;;0.20;;
33862;SDS011;20158;51.436;-2.742;2023-11-21T08:25:44;0.32;;;0.20;;
33862;SDS011;20158;51.436;-2.742;2023-11-21T08:28:11;0.17;;;0.17;;
33862;SDS011;20158;51.436;-2.742;2023-11-21T08:30:40;0.55;;;0.35;;
33862;SDS011;20158;51.436;-2.742;2023-11-21T08:33:07;0.60;;;0.30;;
33862;SDS011;20158;51.436;-2.742;2023-11-21T08:35:34;0.30;;;0.30;;
33862;SDS011;20158;51.436;-2.742;2023-11-21T08:38:00;0.68;;;0.30;;
33862;SDS011;20158;51.436;-2.742;2023-11-21T08:40:27;0.52;;;0.30;;
33862;SDS011;20158;51.436;-2.742;2023-11-21T08:42:59;1.17;;;0.20;;
33862;SDS011;20158;51.436;-2.742;2023-11-21T08:45:26;0.30;;;0.20;;
33862;SDS011;20158;51.436;-2.742;2023-11-21T08:47:53;1.27;;;0.30;;
33862;SDS011;20158;51.436;-2.742;2023-11-21T08:50:19;0.47;;;0.20;;
33862;SDS011;20158;51.436;-2.742;2023-11-21T08:52:47;0.20;;;0.20;;
33862;SDS011;20158;51.436;-2.742;2023-11-21T08:55:13;2.38;;;0.30;;
33862;SDS011;20158;51.436;-2.742;2023-11-21T08:57:40;0.85;;;0.30;;
33862;SDS011;20158;51.436;-2.742;2023-11-21T09:00:09;0.40;;;0.20;;
33862;SDS011;20158;51.436;-2.742;2023-11-21T09:02:43;0.57;;;0.38;;
33862;SDS011;20158;51.436;-2.742;2023-11-21T09:05:11;0.93;;;0.90;;
33862;SDS011;20158;51.436;-2.742;2023-11-21T09:07:39;0.75;;;0.30;;
33862;SDS011;20158;51.436;-2.742;2023-11-21T09:10:07;0.45;;;0.20;;
33862;SDS011;20158;51.436;-2.742;2023-11-21T09:12:35;0.25;;;0.20;;
33862;SDS011;20158;51.436;-2.742;2023-11-21T09:15:06;0.52;;;0.30;;
33862;SDS011;20158;51.436;-2.742;2023-11-21T09:17:38;0.40;;;0.20;;
33862;SDS011;20158;51.436;-2.742;2023-11-21T09:20:05;1.13;;;0.52;;
33862;SDS011;20158;51.436;-2.742;2023-11-21T09:22:32;0.65;;;0.30;;
33862;SDS011;20158;51.436;-2.742;2023-11-21T09:24:58;0.50;;;0.25;;
33862;SDS011;20158;51.436;-2.742;2023-11-21T09:27:25;0.90;;;0.30;;
33862;SDS011;20158;51.436;-2.742;2023-11-21T09:29:52;0.55;;;0.30;;
33862;SDS011;20158;51.436;-2.742;2023-11-21T09:32:19;1.27;;;0.35;;
33862;SDS011;20158;51.436;-2.742;2023-11-21T09:34:48;1.70;;;0.30;;
33862;SDS011;20158;51.436;-2.742;2023-11-21T09:37:16;0.82;;;0.22;;
33862;SDS011;20158;51.436;-2.742;2023-11-21T09:39:42;0.73;;;0.20;;
33862;SDS011;20158;51.436;-2.742;2023-11-21T09:42:15;0.45;;;0.30;;
33862;SDS011;20158;51.436;-2.742;2023-11-21T09:44:50;3.55;;;0.70;;
33862;SDS011;20158;51.436;-2.742;2023-11-21T09:47:30;0.50;;;0.20;;
33862;SDS011;20158;51.436;-2.742;2023-11-21T09:50:01;1.65;;;0.30;;
33862;SDS011;20158;51.436;-2.742;2023-11-21T09:52:28;0.50;;;0.20;;
33862;SDS011;20158;51.436;-2.742;2023-11-21T09:54:55;0.60;;;0.20;;
33862;SDS011;20158;51.436;-2.742;2023-11-21T09:57:24;0.25;;;0.20;;
33862;SDS011;20158;51.436;-2.742;2023-11-21T09:59:51;0.63;;;0.20;;
33862;SDS011;20158;51.436;-2.742;2023-11-21T10:02:25;0.20;;;0.20;;
33862;SDS011;20158;51.436;-2.742;2023-11-21T10:04:56;0.50;;;0.20;;
33862;SDS011;20158;51.436;-2.742;2023-11-21T10:07:23;2.28;;;0.45;;
33862;SDS011;20158;51.436;-2.742;2023-11-21T10:09:50;0.47;;;0.30;;
33862;SDS011;20158;51.436;-2.742;2023-11-21T10:12:18;0.38;;;0.20;;
33862;SDS011;20158;51.436;-2.742;2023-11-21T10:14:48;0.35;;;0.20;;
33862;SDS011;20158;51.436;-2.742;2023-11-21T10:17:24;0.88;;;0.28;;
33862;SDS011;20158;51.436;-2.742;2023-11-21T10:19:56;0.45;;;0.30;;
33862;SDS011;20158;51.436;-2.742;2023-11-21T10:22:23;0.88;;;0.30;;
33862;SDS011;20158;51.436;-2.742;2023-11-21T10:24:50;0.40;;;0.20;;
33862;SDS011;20158;51.436;-2.742;2023-11-21T10:27:20;1.20;;;0.30;;
33862;SDS011;20158;51.436;-2.742;2023-11-21T10:29:46;2.05;;;0.25;;
33862;SDS011;20158;51.436;-2.742;2023-11-21T10:32:13;0.65;;;0.20;;
33862;SDS011;20158;51.436;-2.742;2023-11-21T10:34:39;1.08;;;0.28;;
33862;SDS011;20158;51.436;-2.742;2023-11-21T10:37:12;0.88;;;0.30;;
33862;SDS011;20158;51.436;-2.742;2023-11-21T10:39:39;0.43;;;0.40;;
33862;SDS011;20158;51.436;-2.742;2023-11-21T10:42:07;1.27;;;0.30;;
33862;SDS011;20158;51.436;-2.742;2023-11-21T10:44:35;0.30;;;0.25;;
33862;SDS011;20158;51.436;-2.742;2023-11-21T10:47:01;0.70;;;0.30;;
33862;SDS011;20158;51.436;-2.742;2023-11-21T10:49:28;0.47;;;0.30;;
33862;SDS011;20158;51.436;-2.742;2023-11-21T10:51:54;0.65;;;0.22;;
33862;SDS011;20158;51.436;-2.742;2023-11-21T10:54:22;0.90;;;0.50;;
33862;SDS011;20158;51.436;-2.742;2023-11-21T10:56:59;1.05;;;0.32;;
33862;SDS011;20158;51.436;-2.742;2023-11-21T10:59:29;0.90;;;0.30;;
33862;SDS011;20158;51.436;-2.742;2023-11-21T11:01:57;0.55;;;0.43;;
33862;SDS011;20158;51.436;-2.742;2023-11-21T11:04:25;0.38;;;0.30;;
33862;SDS011;20158;51.436;-2.742;2023-11-21T11:07:00;1.77;;;0.45;;
33862;SDS011;20158;51.436;-2.742;2023-11-21T11:09:32;1.50;;;0.30;;
33862;SDS011;20158;51.436;-2.742;2023-11-21T11:12:02;0.30;;;0.20;;
33862;SDS011;20158;51.436;-2.742;2023-11-21T11:14:30;0.77;;;0.30;;
33862;SDS011;20158;51.436;-2.742;2023-11-21T11:16:58;1.27;;;0.30;;
33862;SDS011;20158;51.436;-2.742;2023-11-21T11:19:26;0.40;;;0.30;;
33862;SDS011;20158;51.436;-2.742;2023-11-21T11:30:03;2.17;;;0.57;;
33862;SDS011;20158;51.436;-2.742;2023-11-21T11:32:53;1.45;;;0.40;;
33862;SDS011;20158;51.436;-2.742;2023-11-21T11:35:46;1.27;;;0.52;;
33862;SDS011;20158;51.436;-2.742;2023-11-21T11:38:32;1.90;;;0.30;;
33862;SDS011;20158;51.436;-2.742;2023-11-21T11:41:01;1.40;;;0.50;;
33862;SDS011;20158;51.436;-2.742;2023-11-21T11:43:32;0.40;;;0.30;;
33862;SDS011;20158;51.436;-2.742;2023-11-21T11:46:03;0.63;;;0.38;;
33862;SDS011;20158;51.436;-2.742;2023-11-21T11:48:29;0.30;;;0.30;;
33862;SDS011;20158;51.436;-2.742;2023-11-21T11:53:35;1.02;;;0.40;;
33862;SDS011;20158;51.436;-2.742;2023-11-21T11:58:54;1.83;;;0.40;;
33862;SDS011;20158;51.436;-2.742;2023-11-21T12:01:22;0.68;;;0.32;;
33862;SDS011;20158;51.436;-2.742;2023-11-21T12:07:05;1.20;;;0.40;;
33862;SDS011;20158;51.436;-2.742;2023-11-21T12:09:32;0.90;;;0.55;;
33862;SDS011;20158;51.436;-2.742;2023-11-21T12:11:58;1.30;;;0.40;;
33862;SDS011;20158;51.436;-2.742;2023-11-21T12:14:28;2.45;;;0.40;;
33862;SDS011;20158;51.436;-2.742;2023-11-21T12:16:57;0.85;;;0.50;;
33862;SDS011;20158;51.436;-2.742;2023-11-21T12:19:25;1.90;;;0.90;;
33862;SDS011;20158;51.436;-2.742;2023-11-21T12:21:52;1.05;;;0.60;;
33862;SDS011;20158;51.436;-2.742;2023-11-21T12:24:18;0.98;;;0.82;;
33862;SDS011;20158;51.436;-2.742;2023-11-21T12:26:45;1.58;;;0.50;;
33862;SDS011;20158;51.436;-2.742;2023-11-21T12:29:14;0.68;;;0.30;;
33862;SDS011;20158;51.436;-2.742;2023-11-21T12:31:42;0.82;;;0.82;;
33862;SDS011;20158;51.436;-2.742;2023-11-21T12:34:12;0.47;;;0.38;;
33862;SDS011;20158;51.436;-2.742;2023-11-21T12:36:38;1.45;;;0.55;;
33862;SDS011;20158;51.436;-2.742;2023-11-21T12:39:06;0.93;;;0.50;;
33862;SDS011;20158;51.436;-2.742;2023-11-21T12:41:34;2.15;;;0.55;;
33862;SDS011;20158;51.436;-2.742;2023-11-21T12:44:01;1.00;;;0.50;;
33862;SDS011;20158;51.436;-2.742;2023-11-21T12:46:27;1.00;;;0.50;;
33862;SDS011;20158;51.436;-2.742;2023-11-21T12:48:59;0.73;;;0.40;;
33862;SDS011;20158;51.436;-2.742;2023-11-21T12:51:26;1.00;;;0.43;;
33862;SDS011;20158;51.436;-2.742;2023-11-21T12:53:52;1.02;;;0.85;;
33862;SDS011;20158;51.436;-2.742;2023-11-21T12:56:21;0.52;;;0.40;;
33862;SDS011;20158;51.436;-2.742;2023-11-21T12:58:49;1.17;;;0.50;;
33862;SDS011;20158;51.436;-2.742;2023-11-21T13:01:20;1.20;;;0.50;;
33862;SDS011;20158;51.436;-2.742;2023-11-21T13:03:48;0.98;;;0.50;;
33862;SDS011;20158;51.436;-2.742;2023-11-21T13:06:16;1.10;;;0.50;;
33862;SDS011;20158;51.436;-2.742;2023-11-21T13:08:43;0.55;;;0.30;;
33862;SDS011;20158;51.436;-2.742;2023-11-21T13:11:10;0.70;;;0.30;;
33862;SDS011;20158;51.436;-2.742;2023-11-21T13:13:37;0.52;;;0.47;;
33862;SDS011;20158;51.436;-2.742;2023-11-21T13:16:07;0.43;;;0.40;;
33862;SDS011;20158;51.436;-2.742;2023-11-21T13:18:34;0.63;;;0.40;;
33862;SDS011;20158;51.436;-2.742;2023-11-21T13:21:04;0.45;;;0.40;;
33862;SDS011;20158;51.436;-2.742;2023-11-21T13:23:39;1.65;;;0.50;;
33862;SDS011;20158;51.436;-2.742;2023-11-21T13:26:11;2.03;;;0.40;;
33862;SDS011;20158;51.436;-2.742;2023-11-21T13:28:38;0.38;;;0.30;;
33862;SDS011;20158;51.436;-2.742;2023-11-21T13:31:06;113.95;;;23.15;;
33862;SDS011;20158;51.436;-2.742;2023-11-21T13:33:47;59.70;;;15.48;;
33862;SDS011;20158;51.436;-2.742;2023-11-21T13:36:24;45.85;;;10.55;;
33862;SDS011;20158;51.436;-2.742;2023-11-21T13:38:51;41.35;;;10.00;;
33862;SDS011;20158;51.436;-2.742;2023-11-21T13:41:20;39.17;;;8.48;;
33862;SDS011;20158;51.436;-2.742;2023-11-21T13:43:54;34.13;;;9.25;;
33862;SDS011;20158;51.436;-2.742;2023-11-21T13:46:29;25.13;;;6.65;;
33862;SDS011;20158;51.436;-2.742;2023-11-21T13:49:04;21.00;;;6.03;;
33862;SDS011;20158;51.436;-2.742;2023-11-21T13:51:36;22.05;;;6.45;;
33862;SDS011;20158;51.436;-2.742;2023-11-21T13:54:14;13.85;;;3.95;;
33862;SDS011;20158;51.436;-2.742;2023-11-21T13:56:41;12.90;;;4.47;;
33862;SDS011;20158;51.436;-2.742;2023-11-21T13:59:10;13.13;;;4.10;;
33862;SDS011;20158;51.436;-2.742;2023-11-21T14:01:51;14.00;;;3.58;;
33862;SDS011;20158;51.436;-2.742;2023-11-21T14:04:24;10.45;;;3.55;;
33862;SDS011;20158;51.436;-2.742;2023-11-21T14:07:03;8.93;;;2.80;;
33862;SDS011;20158;51.436;-2.742;2023-11-21T14:09:46;8.93;;;2.40;;
33862;SDS011;20158;51.436;-2.742;2023-11-21T14:12:15;7.18;;;2.50;;
33862;SDS011;20158;51.436;-2.742;2023-11-21T14:14:42;8.93;;;2.50;;
33862;SDS011;20158;51.436;-2.742;2023-11-21T14:17:10;6.43;;;2.28;;
33862;SDS011;20158;51.436;-2.742;2023-11-21T14:19:36;4.88;;;2.00;;
33862;SDS011;20158;51.436;-2.742;2023-11-21T14:22:05;5.20;;;1.70;;
33862;SDS011;20158;51.436;-2.742;2023-11-21T14:24:35;7.88;;;2.20;;
33862;SDS011;20158;51.436;-2.742;2023-11-21T14:27:02;3.85;;;1.80;;
33862;SDS011;20158;51.436;-2.742;2023-11-21T14:29:29;4.10;;;1.73;;
33862;SDS011;20158;51.436;-2.742;2023-11-21T14:31:55;3.58;;;1.95;;
33862;SDS011;20158;51.436;-2.742;2023-11-21T14:34:23;3.95;;;1.77;;
33862;SDS011;20158;51.436;-2.742;2023-11-21T14:36:50;3.05;;;1.30;;
33862;SDS011;20158;51.436;-2.742;2023-11-21T14:39:16;2.90;;;1.13;;
33862;SDS011;20158;51.436;-2.742;2023-11-21T14:44:15;4.15;;;1.45;;
33862;SDS011;20158;51.436;-2.742;2023-11-21T14:46:45;3.08;;;1.15;;
33862;SDS011;20158;51.436;-2.742;2023-11-21T14:49:13;2.47;;;1.30;;
33862;SDS011;20158;51.436;-2.742;2023-11-21T14:51:50;2.70;;;1.10;;
33862;SDS011;20158;51.436;-2.742;2023-11-21T14:54:31;2.20;;;1.15;;
33862;SDS011;20158;51.436;-2.742;2023-11-21T14:57:12;2.25;;;1.73;;
33862;SDS011;20158;51.436;-2.742;2023-11-21T14:59:48;1.52;;;1.10;;